createdAt,value
2019-04-04T00:00:45.181Z,38.73
2019-04-04T00:03:16.161Z,42.13
2019-04-04T00:05:45.616Z,37.47
2019-04-04T00:08:27.145Z,45.67
2019-04-04T00:10:57.567Z,37.40
2019-04-04T00:13:27.050Z,39.53
2019-04-04T00:15:56.499Z,35.47
2019-04-04T00:18:27.459Z,33.03
2019-04-04T00:20:57.514Z,30.53
2019-04-04T00:23:26.999Z,29.10
2019-04-04T00:25:56.448Z,35.80
2019-04-04T00:28:25.922Z,31.17
2019-04-04T00:30:55.395Z,34.37
2019-04-04T00:33:25.819Z,30.10
2019-04-04T00:35:56.707Z,31.53
2019-04-04T00:38:26.190Z,25.87
2019-04-04T00:40:55.652Z,28.70
2019-04-04T00:43:25.135Z,25.23
2019-04-04T00:45:54.591Z,31.50
2019-04-04T00:48:24.069Z,27.83
2019-04-04T00:50:53.523Z,28.57
2019-04-04T00:53:23.002Z,31.37
2019-04-04T00:55:52.467Z,32.23
2019-04-04T00:58:22.082Z,29.80
2019-04-04T01:00:52.911Z,29.87
2019-04-04T01:03:22.719Z,30.60
2019-04-04T01:05:52.198Z,31.63
2019-04-04T01:08:21.659Z,27.37
2019-04-04T01:10:51.215Z,30.47
2019-04-04T01:13:21.207Z,30.17
2019-04-04T01:15:51.768Z,35.90
2019-04-04T01:18:21.234Z,26.80
2019-04-04T01:20:51.314Z,38.33
2019-04-04T01:23:20.846Z,39.23
2019-04-04T01:25:50.318Z,39.70
2019-04-04T01:28:19.770Z,47.03
2019-04-04T01:30:49.261Z,42.90
2019-04-04T01:33:19.965Z,49.23
2019-04-04T01:35:49.971Z,57.50
2019-04-04T01:38:19.445Z,52.00
2019-04-04T01:40:48.910Z,49.37
2019-04-04T01:43:18.363Z,57.70
2019-04-04T01:45:47.847Z,58.07
2019-04-04T01:48:18.784Z,63.83
2019-04-04T01:50:48.467Z,67.70
2019-04-04T01:53:17.988Z,58.60
2019-04-04T01:55:47.473Z,66.60
2019-04-04T01:58:16.939Z,83.60
2019-04-04T02:00:46.641Z,66.63
2019-04-04T02:03:16.199Z,68.90
2019-04-04T02:05:45.641Z,75.17
2019-04-04T02:08:16.234Z,70.63
2019-04-04T02:10:45.788Z,79.90
2019-04-04T02:13:15.243Z,78.30
2019-04-04T02:15:45.897Z,75.87
2019-04-04T02:18:15.345Z,77.57
2019-04-04T02:20:44.832Z,90.50
2019-04-04T02:23:14.296Z,86.50
2019-04-04T02:25:43.797Z,88.37
2019-04-04T02:28:13.236Z,88.57
2019-04-04T02:30:42.719Z,82.93
2019-04-04T02:33:12.180Z,86.33
2019-04-04T02:35:43.668Z,85.30
2019-04-04T02:38:12.806Z,75.77
2019-04-04T02:40:42.382Z,76.00
2019-04-04T02:43:11.847Z,80.30
2019-04-04T02:45:41.334Z,73.00
2019-04-04T02:48:10.786Z,71.13
2019-04-04T02:50:40.261Z,68.90
2019-04-04T02:53:10.786Z,66.63
2019-04-04T02:55:40.274Z,65.50
2019-04-04T02:58:13.887Z,68.77
2019-04-04T03:00:40.842Z,73.03
2019-04-04T03:03:10.441Z,59.93
2019-04-04T03:05:39.995Z,77.43
2019-04-04T03:08:09.449Z,73.60
2019-04-04T03:10:38.996Z,72.50
2019-04-04T03:13:08.456Z,71.33
2019-04-04T03:15:41.340Z,61.43
2019-04-04T03:18:09.161Z,58.60
2019-04-04T03:20:38.641Z,63.47
2019-04-04T03:23:08.110Z,206.60
2019-04-04T03:25:37.688Z,65.73
2019-04-04T03:28:07.147Z,59.80
2019-04-04T03:30:36.612Z,71.23
2019-04-04T03:33:06.069Z,60.17
2019-04-04T03:35:36.637Z,72.90
2019-04-04T03:38:06.090Z,63.73
2019-04-04T03:40:35.578Z,58.37
2019-04-04T03:43:05.037Z,67.33
2019-04-04T03:45:34.523Z,62.70
2019-04-04T03:48:05.074Z,59.27
2019-04-04T03:50:34.557Z,72.77
2019-04-04T03:53:04.012Z,67.13
2019-04-04T03:55:33.856Z,69.17
2019-04-04T03:58:03.313Z,68.33
2019-04-04T04:00:33.444Z,59.47
2019-04-04T04:03:02.888Z,67.83
2019-04-04T04:05:35.584Z,66.53
2019-04-04T04:08:03.988Z,67.60
2019-04-04T04:10:33.993Z,57.23
2019-04-04T04:13:03.525Z,65.33
2019-04-04T04:15:33.008Z,60.10
2019-04-04T04:18:02.485Z,64.50
2019-04-04T04:20:36.114Z,66.93
2019-04-04T04:23:03.111Z,62.63
2019-04-04T04:25:35.324Z,66.07
2019-04-04T04:28:03.702Z,77.07
2019-04-04T04:30:33.226Z,77.63
2019-04-04T04:33:03.760Z,77.70
2019-04-04T04:35:33.236Z,60.07
2019-04-04T04:38:02.718Z,67.03
2019-04-04T04:40:32.169Z,59.77
2019-04-04T04:43:01.652Z,57.60
2019-04-04T04:45:31.182Z,66.17
2019-04-04T04:48:00.668Z,70.70
2019-04-04T04:50:30.124Z,85.53
2019-04-04T04:52:59.609Z,71.23
2019-04-04T04:55:29.058Z,68.30
2019-04-04T04:57:58.547Z,71.40
2019-04-04T05:00:28.218Z,74.30
2019-04-04T05:02:57.809Z,68.27
2019-04-04T05:05:27.267Z,74.60
2019-04-04T05:07:56.751Z,76.93
2019-04-04T05:10:27.279Z,105.30
2019-04-04T05:12:56.756Z,93.70
2019-04-04T05:15:26.211Z,83.80
2019-04-04T05:17:55.695Z,90.77
2019-04-04T05:20:28.000Z,88.17
2019-04-04T05:22:56.255Z,72.50
2019-04-04T05:25:25.785Z,87.00
2019-04-04T05:27:55.263Z,72.27
2019-04-04T05:30:24.720Z,58.40
2019-04-04T05:32:56.374Z,69.47
2019-04-04T05:35:25.350Z,73.50
2019-04-04T05:37:54.831Z,60.70
2019-04-04T05:40:24.328Z,67.77
2019-04-04T05:42:54.748Z,65.37
2019-04-04T05:45:24.190Z,63.93
2019-04-04T05:47:56.295Z,74.83
2019-04-04T05:50:24.743Z,73.13
2019-04-04T05:52:54.224Z,71.43
2019-04-04T05:55:23.697Z,72.70
2019-04-04T05:57:53.166Z,70.30
2019-04-04T06:00:22.687Z,65.40
2019-04-04T06:02:52.170Z,65.83
2019-04-04T06:05:21.628Z,68.70
2019-04-04T06:07:51.103Z,64.17
2019-04-04T06:10:20.559Z,65.03
2019-04-04T06:12:50.043Z,67.47
2019-04-04T06:15:19.496Z,70.77
2019-04-04T06:17:48.987Z,60.50
2019-04-04T06:20:18.585Z,64.63
2019-04-04T06:22:48.062Z,69.00
2019-04-04T06:25:17.683Z,66.63
2019-04-04T06:27:47.163Z,60.60
2019-04-04T06:30:18.149Z,62.20
2019-04-04T06:32:47.799Z,60.47
2019-04-04T06:35:17.254Z,58.40
2019-04-04T06:37:46.804Z,57.10
2019-04-04T06:40:16.400Z,53.10
2019-04-04T06:42:45.897Z,53.60
2019-04-04T06:45:16.176Z,60.10
2019-04-04T06:47:45.839Z,60.03
2019-04-04T06:50:15.524Z,56.90
2019-04-04T06:52:45.008Z,54.97
2019-04-04T06:55:14.530Z,54.37
2019-04-04T06:57:44.008Z,49.00
2019-04-04T07:00:15.927Z,48.30
2019-04-04T07:02:47.203Z,47.10
2019-04-04T07:05:15.928Z,42.33
2019-04-04T07:07:45.412Z,44.53
2019-04-04T07:10:15.006Z,44.33
2019-04-04T07:12:44.486Z,45.53
2019-04-04T07:15:16.011Z,43.90
2019-04-04T07:17:45.111Z,44.70
2019-04-04T07:20:17.140Z,48.53
2019-04-04T07:22:46.511Z,44.97
2019-04-04T07:25:15.968Z,44.53
2019-04-04T07:27:47.433Z,47.63
2019-04-04T07:30:17.003Z,49.47
2019-04-04T07:32:46.496Z,48.80
2019-04-04T07:35:17.144Z,45.00
2019-04-04T07:37:47.243Z,47.27
2019-04-04T07:40:20.158Z,44.60
2019-04-04T07:42:48.870Z,38.57
2019-04-04T07:45:18.334Z,44.23
2019-04-04T07:47:47.834Z,38.43
2019-04-04T07:50:17.267Z,41.13
2019-04-04T07:52:46.747Z,40.50
2019-04-04T07:55:16.201Z,38.77
2019-04-04T07:57:45.671Z,33.27
2019-04-04T08:00:15.368Z,39.27
2019-04-04T08:02:44.849Z,34.67
2019-04-04T08:05:14.439Z,31.40
2019-04-04T08:07:43.924Z,33.07
2019-04-04T08:10:20.355Z,32.63
2019-04-04T08:12:45.039Z,33.63
2019-04-04T08:15:14.568Z,40.60
2019-04-04T08:17:44.031Z,40.40
2019-04-04T08:20:13.842Z,37.93
2019-04-04T08:22:43.303Z,35.77
2019-04-04T08:25:12.951Z,34.43
2019-04-04T08:27:42.408Z,37.57
2019-04-04T08:30:12.031Z,34.57
2019-04-04T08:32:41.483Z,39.50
2019-04-04T08:35:12.100Z,42.57
2019-04-04T08:37:41.560Z,41.03
2019-04-04T08:40:11.413Z,41.50
2019-04-04T08:42:40.867Z,46.33
2019-04-04T08:45:10.347Z,47.37
2019-04-04T08:47:39.876Z,47.70
2019-04-04T08:50:09.497Z,48.47
2019-04-04T08:52:38.948Z,44.30
2019-04-04T08:55:08.595Z,48.87
2019-04-04T08:57:38.063Z,52.73
2019-04-04T09:00:08.487Z,48.73
2019-04-04T09:02:37.942Z,47.63
2019-04-04T09:05:12.327Z,49.63
2019-04-04T09:07:38.649Z,44.17
2019-04-04T09:10:08.763Z,57.70
2019-04-04T09:12:38.225Z,50.87
2019-04-04T09:15:09.398Z,50.43
2019-04-04T09:17:38.894Z,48.43
2019-04-04T09:20:09.692Z,45.13
2019-04-04T09:22:40.781Z,43.97
2019-04-04T09:25:11.114Z,43.93
2019-04-04T09:27:40.754Z,50.70
2019-04-04T09:30:12.643Z,47.53
2019-04-04T09:32:42.172Z,41.73
2019-04-04T09:35:13.159Z,40.20
2019-04-04T09:37:42.615Z,43.87
2019-04-04T09:40:13.334Z,41.03
2019-04-04T09:42:42.790Z,40.00
2019-04-04T09:45:12.616Z,41.77
2019-04-04T09:47:42.075Z,38.80
2019-04-04T09:50:12.103Z,37.73
2019-04-04T09:52:41.627Z,38.37
2019-04-04T09:55:11.551Z,37.23
2019-04-04T09:57:41.009Z,39.90
2019-04-04T10:00:14.382Z,44.30
2019-04-04T10:02:43.997Z,43.47
2019-04-04T10:05:15.009Z,48.47
2019-04-04T10:07:45.635Z,49.60
2019-04-04T10:10:16.721Z,48.10
2019-04-04T10:12:46.162Z,56.93
2019-04-04T10:15:16.177Z,50.07
2019-04-04T10:17:45.719Z,54.50
2019-04-04T10:20:15.181Z,54.83
2019-04-04T10:22:45.707Z,51.13
2019-04-04T10:25:15.173Z,53.83
2019-04-04T10:27:44.621Z,48.67
2019-04-04T10:30:14.353Z,54.50
2019-04-04T10:32:43.802Z,58.30
2019-04-04T10:35:13.344Z,60.93
2019-04-04T10:37:42.791Z,54.77
2019-04-04T10:40:12.507Z,62.40
2019-04-04T10:42:41.956Z,56.67
2019-04-04T10:45:12.761Z,55.33
2019-04-04T10:47:42.205Z,55.97
2019-04-04T10:50:12.085Z,57.97
2019-04-04T10:52:41.539Z,53.17
2019-04-04T10:55:11.243Z,55.87
2019-04-04T10:57:40.694Z,49.97
2019-04-04T11:00:11.001Z,54.03
2019-04-04T11:02:40.450Z,54.70
2019-04-04T11:05:10.158Z,46.50
2019-04-04T11:07:39.601Z,44.97
2019-04-04T11:10:09.305Z,50.73
2019-04-04T11:12:38.754Z,45.13
2019-04-04T11:15:08.361Z,43.63
2019-04-04T11:17:37.807Z,44.80
2019-04-04T11:20:07.522Z,46.77
2019-04-04T11:22:36.969Z,42.67
2019-04-04T11:25:06.679Z,41.00
2019-04-04T11:27:36.133Z,37.93
2019-04-04T11:30:09.512Z,38.23
2019-04-04T11:32:38.921Z,42.90
2019-04-04T11:35:08.535Z,43.70
2019-04-04T11:37:37.986Z,44.77
2019-04-04T11:40:07.595Z,41.87
2019-04-04T11:42:37.045Z,42.37
2019-04-04T11:45:06.682Z,41.97
2019-04-04T11:47:37.746Z,43.20
2019-04-04T11:50:07.857Z,46.53
2019-04-04T11:52:37.308Z,46.63
2019-04-04T11:55:07.393Z,51.47
2019-04-04T11:57:38.397Z,50.67
2019-04-04T12:00:10.625Z,48.10
2019-04-04T12:02:40.098Z,46.20
2019-04-04T12:05:09.684Z,47.17
2019-04-04T12:07:39.150Z,45.30
2019-04-04T12:10:08.836Z,48.30
2019-04-04T12:12:38.311Z,51.03
2019-04-04T12:15:08.603Z,46.23
2019-04-04T12:17:38.064Z,47.87
2019-04-04T12:20:08.137Z,50.27
2019-04-04T12:22:37.526Z,50.83
2019-04-04T12:25:07.318Z,53.27
2019-04-04T12:27:37.866Z,51.40
2019-04-04T12:30:08.845Z,51.07
2019-04-04T12:32:38.318Z,53.33
2019-04-04T12:35:07.833Z,55.87
2019-04-04T12:37:37.303Z,53.80
2019-04-04T12:40:19.944Z,58.60
2019-04-04T12:42:41.086Z,65.30
2019-04-04T12:45:10.769Z,58.47
2019-04-04T12:47:40.304Z,65.70
2019-04-04T12:50:10.198Z,60.83
2019-04-04T12:52:39.665Z,59.17
2019-04-04T12:55:09.561Z,58.07
2019-04-04T12:57:39.034Z,59.00
2019-04-04T13:00:09.583Z,64.23
2019-04-04T13:02:39.050Z,65.63
2019-04-04T13:05:09.337Z,67.77
2019-04-04T13:07:38.813Z,72.33
2019-04-04T13:10:11.918Z,70.70
2019-04-04T13:12:40.187Z,76.07
2019-04-04T13:15:10.874Z,78.27
2019-04-04T13:17:40.393Z,76.50
2019-04-04T13:20:10.537Z,74.60
2019-04-04T13:22:40.001Z,72.20
2019-04-04T13:25:09.998Z,76.27
2019-04-04T13:27:39.467Z,76.77
2019-04-04T13:30:12.726Z,78.50
2019-04-04T13:32:42.188Z,72.43
2019-04-04T13:35:11.776Z,67.17
2019-04-04T13:37:41.293Z,75.53
2019-04-04T13:40:10.820Z,73.70
2019-04-04T13:42:40.284Z,75.37
2019-04-04T13:45:09.963Z,74.57
2019-04-04T13:47:40.356Z,81.73
2019-04-04T13:50:12.452Z,83.93
2019-04-04T13:52:41.403Z,81.80
2019-04-04T13:55:10.985Z,82.03
2019-04-04T13:57:40.459Z,80.83
2019-04-04T14:00:10.541Z,83.30
2019-04-04T14:02:40.085Z,81.27
2019-04-04T14:05:12.686Z,99.03
2019-04-04T14:07:43.508Z,78.77
2019-04-04T14:10:12.213Z,78.13
2019-04-04T14:12:41.692Z,79.73
2019-04-04T14:15:11.778Z,78.97
2019-04-04T14:17:43.708Z,82.77
2019-04-04T14:20:12.840Z,84.10
2019-04-04T14:22:42.299Z,82.10
2019-04-04T14:25:11.813Z,79.60
2019-04-04T14:27:41.285Z,76.50
2019-04-04T14:30:11.377Z,75.57
2019-04-04T14:32:40.843Z,73.40
2019-04-04T14:35:11.892Z,72.50
2019-04-04T14:37:41.369Z,78.83
2019-04-04T14:40:12.029Z,76.70
2019-04-04T14:42:41.497Z,80.93
2019-04-04T14:45:11.015Z,79.57
2019-04-04T14:47:40.562Z,71.67
2019-04-04T14:50:10.239Z,79.83
2019-04-04T14:52:39.917Z,81.90
2019-04-04T14:55:10.634Z,82.37
2019-04-04T14:57:40.105Z,83.20
2019-04-04T15:00:11.729Z,77.10
2019-04-04T15:02:41.209Z,82.40
2019-04-04T15:05:10.792Z,80.10
2019-04-04T15:07:40.272Z,77.93
2019-04-04T15:10:09.856Z,82.43
2019-04-04T15:12:39.325Z,84.97
2019-04-04T15:15:09.249Z,76.57
2019-04-04T15:17:38.721Z,71.13
2019-04-04T15:20:08.601Z,65.97
2019-04-04T15:22:38.073Z,67.57
2019-04-04T15:25:07.665Z,67.13
2019-04-04T15:27:40.014Z,58.97
2019-04-04T15:30:09.818Z,62.33
2019-04-04T15:32:39.266Z,63.70
2019-04-04T15:35:09.178Z,59.07
2019-04-04T15:37:38.648Z,59.20
2019-04-04T15:40:08.759Z,62.47
2019-04-04T15:42:39.269Z,69.17
2019-04-04T15:45:08.982Z,60.97
2019-04-04T15:47:38.464Z,70.87
2019-04-04T15:50:09.034Z,67.10
2019-04-04T15:52:38.482Z,68.47
2019-04-04T15:55:08.092Z,69.73
2019-04-04T15:57:37.537Z,66.83
2019-04-04T16:00:08.272Z,68.80
2019-04-04T16:02:37.793Z,66.63
2019-04-04T16:05:07.553Z,63.90
2019-04-04T16:07:37.013Z,58.20
2019-04-04T16:10:07.327Z,76.37
2019-04-04T16:12:36.787Z,61.40
2019-04-04T16:15:07.505Z,73.10
2019-04-04T16:17:37.030Z,70.53
2019-04-04T16:20:09.148Z,76.47
2019-04-04T16:22:38.635Z,70.97
2019-04-04T16:25:08.408Z,68.57
2019-04-04T16:27:38.411Z,74.77
2019-04-04T16:30:09.342Z,73.23
2019-04-04T16:32:38.849Z,73.90
2019-04-04T16:35:08.554Z,68.77
2019-04-04T16:37:38.075Z,70.90
2019-04-04T16:40:09.790Z,74.43
2019-04-04T16:42:39.360Z,77.37
2019-04-04T16:45:09.281Z,70.73
2019-04-04T16:47:39.023Z,81.77
2019-04-04T16:50:08.867Z,66.33
2019-04-04T16:52:38.330Z,69.33
2019-04-04T16:55:08.220Z,71.70
2019-04-04T16:57:37.679Z,73.90
2019-04-04T17:00:10.239Z,75.60
2019-04-04T17:02:39.764Z,72.23
2019-04-04T17:05:10.981Z,71.53
2019-04-04T17:07:40.490Z,75.10
2019-04-04T17:10:10.511Z,77.70
2019-04-04T17:12:39.962Z,75.77
2019-04-04T17:15:10.084Z,85.03
2019-04-04T17:17:39.622Z,83.73
2019-04-04T17:20:09.643Z,81.43
2019-04-04T17:22:39.167Z,74.77
2019-04-04T17:25:09.287Z,83.67
2019-04-04T17:27:41.276Z,77.57
2019-04-04T17:30:12.845Z,75.33
2019-04-04T17:32:42.297Z,75.60
2019-04-04T17:35:11.975Z,72.70
2019-04-04T17:37:42.939Z,71.67
2019-04-04T17:40:13.555Z,79.77
2019-04-04T17:42:43.046Z,76.60
2019-04-04T17:45:13.039Z,73.80
2019-04-04T17:47:42.491Z,78.97
2019-04-04T17:50:13.615Z,76.87
2019-04-04T17:52:43.538Z,79.27
2019-04-04T17:55:13.591Z,77.73
2019-04-04T17:57:43.289Z,80.30
2019-04-04T18:00:14.798Z,82.53
2019-04-04T18:02:44.325Z,77.53
2019-04-04T18:05:13.947Z,87.07
2019-04-04T18:07:43.392Z,83.27
2019-04-04T18:10:13.217Z,81.43
2019-04-04T18:12:43.106Z,88.67
2019-04-04T18:15:13.721Z,93.57
2019-04-04T18:17:43.183Z,98.90
2019-04-04T18:20:13.137Z,91.10
2019-04-04T18:22:42.663Z,83.97
2019-04-04T18:25:13.511Z,79.13
2019-04-04T18:27:43.343Z,91.13
2019-04-04T18:30:14.311Z,94.97
2019-04-04T18:32:43.736Z,85.23
2019-04-04T18:35:13.774Z,94.57
2019-04-04T18:37:43.802Z,90.23
2019-04-04T18:40:13.448Z,104.83
2019-04-04T18:42:52.716Z,101.53
2019-04-04T18:45:14.851Z,103.67
2019-04-04T18:47:44.307Z,95.33
2019-04-04T18:50:14.099Z,99.90
2019-04-04T18:52:43.555Z,98.73
2019-04-04T18:55:19.991Z,107.30
2019-04-04T18:57:45.667Z,101.80
2019-04-04T19:00:15.887Z,99.10
2019-04-04T19:02:45.347Z,99.13
2019-04-04T19:05:14.984Z,103.60
2019-04-04T19:07:44.611Z,106.37
2019-04-04T19:10:14.533Z,100.10
2019-04-04T19:12:43.998Z,114.20
2019-04-04T19:15:14.423Z,104.07
2019-04-04T19:17:43.878Z,93.33
2019-04-04T19:20:13.908Z,105.70
2019-04-04T19:22:43.436Z,95.63
2019-04-04T19:25:13.838Z,94.93
2019-04-04T19:27:43.461Z,90.33
2019-04-04T19:30:15.566Z,96.00
2019-04-04T19:32:45.020Z,96.70
2019-04-04T19:35:16.315Z,107.67
2019-04-04T19:37:45.851Z,109.80
2019-04-04T19:40:16.070Z,120.93
2019-04-04T19:42:45.550Z,115.23
2019-04-04T19:45:15.555Z,106.93
2019-04-04T19:47:45.042Z,109.23
2019-04-04T19:50:14.743Z,109.50
2019-04-04T19:52:44.224Z,110.43
2019-04-04T19:55:13.689Z,106.93
2019-04-04T19:57:43.171Z,109.13
2019-04-04T20:00:13.440Z,97.03
2019-04-04T20:02:44.081Z,108.90
2019-04-04T20:05:13.859Z,100.37
2019-04-04T20:07:43.348Z,106.37
2019-04-04T20:10:13.251Z,116.10
2019-04-04T20:12:42.730Z,104.93
2019-04-04T20:15:12.331Z,109.10
2019-04-04T20:17:41.816Z,111.03
2019-04-04T20:20:11.418Z,112.63
2019-04-04T20:22:40.907Z,118.80
2019-04-04T20:25:10.507Z,100.30
2019-04-04T20:27:39.998Z,121.17
2019-04-04T20:30:10.199Z,106.23
2019-04-04T20:32:39.687Z,102.43
2019-04-04T20:35:09.390Z,110.70
2019-04-04T20:37:38.869Z,98.33
2019-04-04T20:40:08.894Z,127.20
2019-04-04T20:42:38.358Z,112.00
2019-04-04T20:45:07.959Z,115.67
2019-04-04T20:47:37.443Z,123.30
2019-04-04T20:50:07.948Z,113.23
2019-04-04T20:52:37.507Z,112.90
2019-04-04T20:55:07.035Z,117.07
2019-04-04T20:57:36.523Z,120.27
2019-04-04T21:00:07.133Z,120.60
2019-04-04T21:02:37.682Z,123.90
2019-04-04T21:05:07.788Z,121.03
2019-04-04T21:07:37.271Z,120.00
2019-04-04T21:10:06.873Z,116.73
2019-04-04T21:12:36.413Z,108.53
2019-04-04T21:15:06.958Z,113.33
2019-04-04T21:17:36.532Z,118.77
2019-04-04T21:20:07.052Z,106.93
2019-04-04T21:22:37.511Z,119.53
2019-04-04T21:25:07.103Z,118.20
2019-04-04T21:27:36.591Z,110.37
2019-04-04T21:30:07.199Z,114.17
2019-04-04T21:32:36.692Z,113.20
2019-04-04T21:35:07.024Z,117.27
2019-04-04T21:37:36.500Z,117.83
2019-04-04T21:40:06.116Z,109.60
2019-04-04T21:42:36.652Z,117.33
2019-04-04T21:45:07.630Z,111.90
2019-04-04T21:47:37.116Z,116.97
2019-04-04T21:50:07.723Z,106.87
2019-04-04T21:52:37.488Z,101.77
2019-04-04T21:55:07.211Z,104.33
2019-04-04T21:57:36.695Z,104.00
2019-04-04T22:00:07.780Z,101.63
2019-04-04T22:02:38.950Z,103.87
2019-04-04T22:05:08.726Z,105.27
2019-04-04T22:07:38.204Z,100.03
2019-04-04T22:10:08.406Z,112.00
2019-04-04T22:12:38.964Z,96.77
2019-04-04T22:15:09.057Z,109.90
2019-04-04T22:17:39.784Z,95.80
2019-04-04T22:20:09.783Z,107.70
2019-04-04T22:22:39.273Z,112.67
2019-04-04T22:25:08.799Z,111.67
2019-04-04T22:27:38.284Z,104.03
2019-04-04T22:30:09.460Z,106.43
2019-04-04T22:32:38.936Z,113.77
2019-04-04T22:35:08.639Z,116.00
2019-04-04T22:37:38.127Z,121.03
2019-04-04T22:40:08.630Z,122.60
2019-04-04T22:42:38.121Z,126.93
2019-04-04T22:45:08.254Z,130.30
2019-04-04T22:47:37.735Z,116.50
2019-04-04T22:50:07.335Z,123.63
2019-04-04T22:52:36.821Z,119.13
2019-04-04T22:55:06.423Z,117.80
2019-04-04T22:57:35.909Z,118.13
2019-04-04T23:00:08.053Z,134.00
2019-04-04T23:02:39.160Z,125.73
2019-04-04T23:05:09.171Z,123.90
2019-04-04T23:07:38.649Z,119.07
2019-04-04T23:10:08.851Z,136.53
2019-04-04T23:12:38.338Z,129.80
2019-04-04T23:15:10.313Z,119.10
2019-04-04T23:17:39.812Z,109.47
2019-04-04T23:20:10.020Z,125.87
2019-04-04T23:22:46.960Z,115.20
2019-04-04T23:25:10.784Z,121.53
2019-04-04T23:27:40.247Z,116.53
2019-04-04T23:30:10.181Z,120.53
2019-04-04T23:32:39.640Z,129.63
2019-04-04T23:35:09.575Z,126.63
2019-04-04T23:37:39.107Z,131.50
2019-04-04T23:40:08.864Z,129.20
2019-04-04T23:42:38.325Z,128.23
2019-04-04T23:45:08.248Z,131.27
2019-04-04T23:47:43.300Z,141.93
2019-04-04T23:50:08.947Z,139.30
2019-04-04T23:52:38.415Z,143.67
2019-04-04T23:55:08.071Z,146.70
2019-04-04T23:57:37.533Z,153.70
